sensor_id;sensor_type;location;lat;lon;timestamp;temperature;humidity
28837;DHT22;50669;50.982;11.022;2024-03-07T00:00:11;19.00;75.40
28837;DHT22;50669;50.982;11.022;2024-03-07T00:02:47;19.00;75.70
28837;DHT22;50669;50.982;11.022;2024-03-07T00:05:19;19.00;75.80
28837;DHT22;50669;50.982;11.022;2024-03-07T00:07:46;18.90;75.80
28837;DHT22;50669;50.982;11.022;2024-03-07T00:10:12;18.90;76.10
28837;DHT22;50669;50.982;11.022;2024-03-07T00:12:38;19.00;76.30
28837;DHT22;50669;50.982;11.022;2024-03-07T00:15:07;18.90;76.40
28837;DHT22;50669;50.982;11.022;2024-03-07T00:17:36;19.00;76.60
28837;DHT22;50669;50.982;11.022;2024-03-07T00:20:04;18.90;76.60
28837;DHT22;50669;50.982;11.022;2024-03-07T00:22:38;19.00;76.90
28837;DHT22;50669;50.982;11.022;2024-03-07T00:25:06;18.90;76.90
28837;DHT22;50669;50.982;11.022;2024-03-07T00:27:35;18.90;77.00
28837;DHT22;50669;50.982;11.022;2024-03-07T00:30:07;18.90;77.10
28837;DHT22;50669;50.982;11.022;2024-03-07T00:32:34;18.90;77.30
28837;DHT22;50669;50.982;11.022;2024-03-07T00:35:02;18.90;77.40
28837;DHT22;50669;50.982;11.022;2024-03-07T00:37:31;18.90;77.50
28837;DHT22;50669;50.982;11.022;2024-03-07T00:39:58;18.90;77.60
28837;DHT22;50669;50.982;11.022;2024-03-07T00:42:24;18.90;77.80
28837;DHT22;50669;50.982;11.022;2024-03-07T00:44:50;18.90;77.90
28837;DHT22;50669;50.982;11.022;2024-03-07T00:47:20;18.90;78.00
28837;DHT22;50669;50.982;11.022;2024-03-07T00:49:46;18.90;78.10
28837;DHT22;50669;50.982;11.022;2024-03-07T00:52:12;18.90;78.10
28837;DHT22;50669;50.982;11.022;2024-03-07T00:54:38;18.90;78.20
28837;DHT22;50669;50.982;11.022;2024-03-07T00:57:08;18.90;78.10
28837;DHT22;50669;50.982;11.022;2024-03-07T00:59:36;18.90;78.10
28837;DHT22;50669;50.982;11.022;2024-03-07T01:02:02;18.90;78.20
28837;DHT22;50669;50.982;11.022;2024-03-07T01:04:27;18.90;78.20
28837;DHT22;50669;50.982;11.022;2024-03-07T01:06:57;18.90;78.30
28837;DHT22;50669;50.982;11.022;2024-03-07T01:09:23;18.90;78.30
28837;DHT22;50669;50.982;11.022;2024-03-07T01:11:49;18.90;78.40
28837;DHT22;50669;50.982;11.022;2024-03-07T01:14:15;18.90;78.40
28837;DHT22;50669;50.982;11.022;2024-03-07T01:16:40;18.90;78.40
28837;DHT22;50669;50.982;11.022;2024-03-07T01:19:07;18.90;78.60
28837;DHT22;50669;50.982;11.022;2024-03-07T01:21:34;18.90;78.60
28837;DHT22;50669;50.982;11.022;2024-03-07T01:24:00;18.90;78.60
28837;DHT22;50669;50.982;11.022;2024-03-07T01:26:28;18.90;78.70
28837;DHT22;50669;50.982;11.022;2024-03-07T01:28:55;18.90;78.70
28837;DHT22;50669;50.982;11.022;2024-03-07T01:31:22;18.90;78.80
28837;DHT22;50669;50.982;11.022;2024-03-07T01:33:48;18.90;79.50
28837;DHT22;50669;50.982;11.022;2024-03-07T01:36:14;18.90;78.70
28837;DHT22;50669;50.982;11.022;2024-03-07T01:38:41;18.90;78.80
28837;DHT22;50669;50.982;11.022;2024-03-07T01:41:07;18.90;78.90
28837;DHT22;50669;50.982;11.022;2024-03-07T01:43:33;18.90;78.80
28837;DHT22;50669;50.982;11.022;2024-03-07T01:46:04;18.90;78.90
28837;DHT22;50669;50.982;11.022;2024-03-07T01:48:30;18.90;79.00
28837;DHT22;50669;50.982;11.022;2024-03-07T01:50:59;18.90;78.90
28837;DHT22;50669;50.982;11.022;2024-03-07T01:53:27;18.90;79.00
28837;DHT22;50669;50.982;11.022;2024-03-07T01:55:55;18.90;79.00
28837;DHT22;50669;50.982;11.022;2024-03-07T01:58:21;18.90;79.10
28837;DHT22;50669;50.982;11.022;2024-03-07T02:00:50;18.90;79.10
28837;DHT22;50669;50.982;11.022;2024-03-07T02:03:18;18.90;79.20
28837;DHT22;50669;50.982;11.022;2024-03-07T02:05:44;18.90;79.20
28837;DHT22;50669;50.982;11.022;2024-03-07T02:08:11;18.90;79.30
28837;DHT22;50669;50.982;11.022;2024-03-07T02:10:36;18.90;79.20
28837;DHT22;50669;50.982;11.022;2024-03-07T02:13:02;18.90;79.30
28837;DHT22;50669;50.982;11.022;2024-03-07T02:15:28;18.90;79.30
28837;DHT22;50669;50.982;11.022;2024-03-07T02:17:56;18.90;79.50
28837;DHT22;50669;50.982;11.022;2024-03-07T02:20:23;18.90;79.60
28837;DHT22;50669;50.982;11.022;2024-03-07T02:22:54;18.80;79.50
28837;DHT22;50669;50.982;11.022;2024-03-07T02:25:19;18.80;79.50
28837;DHT22;50669;50.982;11.022;2024-03-07T02:27:52;18.80;79.70
28837;DHT22;50669;50.982;11.022;2024-03-07T02:30:22;18.80;79.60
28837;DHT22;50669;50.982;11.022;2024-03-07T02:32:47;18.80;79.80
28837;DHT22;50669;50.982;11.022;2024-03-07T02:35:17;18.80;79.70
28837;DHT22;50669;50.982;11.022;2024-03-07T02:37:43;18.80;79.80
28837;DHT22;50669;50.982;11.022;2024-03-07T02:40:14;18.80;79.90
28837;DHT22;50669;50.982;11.022;2024-03-07T02:42:40;18.80;79.90
28837;DHT22;50669;50.982;11.022;2024-03-07T02:45:06;18.80;80.00
28837;DHT22;50669;50.982;11.022;2024-03-07T02:47:34;18.80;80.00
28837;DHT22;50669;50.982;11.022;2024-03-07T02:50:01;18.80;80.00
28837;DHT22;50669;50.982;11.022;2024-03-07T02:52:31;18.80;80.10
28837;DHT22;50669;50.982;11.022;2024-03-07T02:54:57;18.80;80.10
28837;DHT22;50669;50.982;11.022;2024-03-07T02:57:23;18.80;80.10
28837;DHT22;50669;50.982;11.022;2024-03-07T02:59:48;18.80;80.20
28837;DHT22;50669;50.982;11.022;2024-03-07T03:02:16;18.80;80.20
28837;DHT22;50669;50.982;11.022;2024-03-07T03:04:42;18.80;80.20
28837;DHT22;50669;50.982;11.022;2024-03-07T03:07:12;18.80;80.20
28837;DHT22;50669;50.982;11.022;2024-03-07T03:09:40;18.80;80.30
28837;DHT22;50669;50.982;11.022;2024-03-07T03:12:09;18.80;80.30
28837;DHT22;50669;50.982;11.022;2024-03-07T03:14:36;18.80;80.30
28837;DHT22;50669;50.982;11.022;2024-03-07T03:17:03;18.80;80.30
28837;DHT22;50669;50.982;11.022;2024-03-07T03:19:31;18.80;80.30
28837;DHT22;50669;50.982;11.022;2024-03-07T03:21:56;18.80;81.00
28837;DHT22;50669;50.982;11.022;2024-03-07T03:24:22;18.80;80.30
28837;DHT22;50669;50.982;11.022;2024-03-07T03:26:51;18.80;80.30
28837;DHT22;50669;50.982;11.022;2024-03-07T03:29:16;18.80;80.30
28837;DHT22;50669;50.982;11.022;2024-03-07T03:31:43;18.80;80.30
28837;DHT22;50669;50.982;11.022;2024-03-07T03:34:09;18.80;80.30
28837;DHT22;50669;50.982;11.022;2024-03-07T03:36:37;18.80;80.30
28837;DHT22;50669;50.982;11.022;2024-03-07T03:39:05;18.80;80.30
28837;DHT22;50669;50.982;11.022;2024-03-07T03:41:32;18.80;80.30
28837;DHT22;50669;50.982;11.022;2024-03-07T03:43:57;18.80;80.30
28837;DHT22;50669;50.982;11.022;2024-03-07T03:46:23;18.80;80.30
28837;DHT22;50669;50.982;11.022;2024-03-07T03:48:54;18.80;80.30
28837;DHT22;50669;50.982;11.022;2024-03-07T03:51:19;18.80;80.40
28837;DHT22;50669;50.982;11.022;2024-03-07T03:53:49;18.80;80.30
28837;DHT22;50669;50.982;11.022;2024-03-07T03:56:17;18.80;80.30
28837;DHT22;50669;50.982;11.022;2024-03-07T03:58:45;18.80;80.30
28837;DHT22;50669;50.982;11.022;2024-03-07T04:01:14;18.80;80.30
28837;DHT22;50669;50.982;11.022;2024-03-07T04:03:41;18.80;80.30
28837;DHT22;50669;50.982;11.022;2024-03-07T04:06:07;18.80;80.30
28837;DHT22;50669;50.982;11.022;2024-03-07T04:08:33;18.80;80.40
28837;DHT22;50669;50.982;11.022;2024-03-07T04:11:02;18.80;80.40
28837;DHT22;50669;50.982;11.022;2024-03-07T04:13:31;18.80;80.30
28837;DHT22;50669;50.982;11.022;2024-03-07T04:15:57;18.80;80.50
28837;DHT22;50669;50.982;11.022;2024-03-07T04:18:24;18.80;80.50
28837;DHT22;50669;50.982;11.022;2024-03-07T04:20:51;18.80;80.40
28837;DHT22;50669;50.982;11.022;2024-03-07T04:23:17;18.80;80.60
28837;DHT22;50669;50.982;11.022;2024-03-07T04:25:44;18.80;80.50
28837;DHT22;50669;50.982;11.022;2024-03-07T04:28:09;18.80;80.60
28837;DHT22;50669;50.982;11.022;2024-03-07T04:30:37;18.80;80.70
28837;DHT22;50669;50.982;11.022;2024-03-07T04:33:03;18.80;80.70
28837;DHT22;50669;50.982;11.022;2024-03-07T04:35:30;18.80;80.80
28837;DHT22;50669;50.982;11.022;2024-03-07T04:37:56;18.80;80.80
28837;DHT22;50669;50.982;11.022;2024-03-07T04:40:22;18.80;80.90
28837;DHT22;50669;50.982;11.022;2024-03-07T04:42:50;18.80;80.80
28837;DHT22;50669;50.982;11.022;2024-03-07T04:45:19;18.80;81.00
28837;DHT22;50669;50.982;11.022;2024-03-07T04:47:45;18.70;80.90
28837;DHT22;50669;50.982;11.022;2024-03-07T04:50:14;18.80;81.00
28837;DHT22;50669;50.982;11.022;2024-03-07T04:52:47;18.80;81.10
28837;DHT22;50669;50.982;11.022;2024-03-07T04:55:15;18.80;81.10
28837;DHT22;50669;50.982;11.022;2024-03-07T04:57:41;18.80;81.10
28837;DHT22;50669;50.982;11.022;2024-03-07T05:00:08;18.70;81.10
28837;DHT22;50669;50.982;11.022;2024-03-07T05:02:40;18.80;81.10
28837;DHT22;50669;50.982;11.022;2024-03-07T05:05:08;18.80;81.10
28837;DHT22;50669;50.982;11.022;2024-03-07T05:07:36;18.80;81.10
28837;DHT22;50669;50.982;11.022;2024-03-07T05:10:03;18.70;81.00
28837;DHT22;50669;50.982;11.022;2024-03-07T05:12:30;18.70;81.00
28837;DHT22;50669;50.982;11.022;2024-03-07T05:14:58;18.80;81.00
28837;DHT22;50669;50.982;11.022;2024-03-07T05:17:24;18.70;81.00
28837;DHT22;50669;50.982;11.022;2024-03-07T05:19:50;18.80;81.10
28837;DHT22;50669;50.982;11.022;2024-03-07T05:22:15;18.80;81.10
28837;DHT22;50669;50.982;11.022;2024-03-07T05:24:45;18.80;81.00
28837;DHT22;50669;50.982;11.022;2024-03-07T05:27:11;18.70;81.10
28837;DHT22;50669;50.982;11.022;2024-03-07T05:29:37;18.80;81.00
28837;DHT22;50669;50.982;11.022;2024-03-07T05:32:38;18.70;81.10
28837;DHT22;50669;50.982;11.022;2024-03-07T05:35:05;18.80;81.10
28837;DHT22;50669;50.982;11.022;2024-03-07T05:37:33;18.80;81.20
28837;DHT22;50669;50.982;11.022;2024-03-07T05:39:59;18.80;81.30
28837;DHT22;50669;50.982;11.022;2024-03-07T05:42:28;18.40;74.20
28837;DHT22;50669;50.982;11.022;2024-03-07T05:44:55;17.60;73.00
28837;DHT22;50669;50.982;11.022;2024-03-07T05:47:20;17.00;74.80
28837;DHT22;50669;50.982;11.022;2024-03-07T05:49:49;16.50;76.90
28837;DHT22;50669;50.982;11.022;2024-03-07T05:52:15;16.10;76.50
28837;DHT22;50669;50.982;11.022;2024-03-07T05:54:41;15.80;78.60
28837;DHT22;50669;50.982;11.022;2024-03-07T05:57:09;15.50;77.00
28837;DHT22;50669;50.982;11.022;2024-03-07T05:59:35;15.20;78.20
28837;DHT22;50669;50.982;11.022;2024-03-07T06:02:01;15.10;79.90
28837;DHT22;50669;50.982;11.022;2024-03-07T06:04:30;14.90;79.20
28837;DHT22;50669;50.982;11.022;2024-03-07T06:07:01;14.60;79.00
28837;DHT22;50669;50.982;11.022;2024-03-07T06:09:31;14.50;80.30
28837;DHT22;50669;50.982;11.022;2024-03-07T06:11:56;14.20;80.30
28837;DHT22;50669;50.982;11.022;2024-03-07T06:14:26;14.50;84.90
28837;DHT22;50669;50.982;11.022;2024-03-07T06:16:52;15.10;86.30
28837;DHT22;50669;50.982;11.022;2024-03-07T06:19:20;15.80;86.00
28837;DHT22;50669;50.982;11.022;2024-03-07T06:21:46;16.30;85.20
28837;DHT22;50669;50.982;11.022;2024-03-07T06:24:12;16.70;84.10
28837;DHT22;50669;50.982;11.022;2024-03-07T06:26:40;17.10;83.10
28837;DHT22;50669;50.982;11.022;2024-03-07T06:29:09;17.40;82.50
28837;DHT22;50669;50.982;11.022;2024-03-07T06:31:37;17.60;82.50
28837;DHT22;50669;50.982;11.022;2024-03-07T06:34:03;17.70;81.20
28837;DHT22;50669;50.982;11.022;2024-03-07T06:36:28;17.90;80.80
28837;DHT22;50669;50.982;11.022;2024-03-07T06:38:54;18.00;80.50
28837;DHT22;50669;50.982;11.022;2024-03-07T06:41:20;18.10;80.20
28837;DHT22;50669;50.982;11.022;2024-03-07T06:43:46;18.20;80.00
28837;DHT22;50669;50.982;11.022;2024-03-07T06:46:12;18.20;79.70
28837;DHT22;50669;50.982;11.022;2024-03-07T06:48:42;18.30;79.50
28837;DHT22;50669;50.982;11.022;2024-03-07T06:51:08;18.30;79.30
28837;DHT22;50669;50.982;11.022;2024-03-07T06:53:36;18.40;79.10
28837;DHT22;50669;50.982;11.022;2024-03-07T06:56:04;18.40;78.90
28837;DHT22;50669;50.982;11.022;2024-03-07T06:58:32;18.40;78.70
28837;DHT22;50669;50.982;11.022;2024-03-07T07:00:57;18.50;78.70
28837;DHT22;50669;50.982;11.022;2024-03-07T07:03:25;18.50;78.60
28837;DHT22;50669;50.982;11.022;2024-03-07T07:05:56;18.60;78.40
28837;DHT22;50669;50.982;11.022;2024-03-07T07:08:21;18.60;78.30
28837;DHT22;50669;50.982;11.022;2024-03-07T07:10:47;18.60;78.20
28837;DHT22;50669;50.982;11.022;2024-03-07T07:13:13;18.70;78.20
28837;DHT22;50669;50.982;11.022;2024-03-07T07:15:39;18.60;78.70
28837;DHT22;50669;50.982;11.022;2024-03-07T07:18:05;18.60;77.90
28837;DHT22;50669;50.982;11.022;2024-03-07T07:20:33;18.70;77.90
28837;DHT22;50669;50.982;11.022;2024-03-07T07:23:02;18.70;77.80
28837;DHT22;50669;50.982;11.022;2024-03-07T07:25:32;18.70;77.70
28837;DHT22;50669;50.982;11.022;2024-03-07T07:27:58;18.70;77.60
28837;DHT22;50669;50.982;11.022;2024-03-07T07:30:24;18.70;77.60
28837;DHT22;50669;50.982;11.022;2024-03-07T07:32:51;18.70;77.50
28837;DHT22;50669;50.982;11.022;2024-03-07T07:35:20;18.70;77.50
28837;DHT22;50669;50.982;11.022;2024-03-07T07:37:47;18.70;77.30
28837;DHT22;50669;50.982;11.022;2024-03-07T07:40:16;18.80;77.30
28837;DHT22;50669;50.982;11.022;2024-03-07T07:42:45;18.80;77.30
28837;DHT22;50669;50.982;11.022;2024-03-07T07:45:13;18.80;77.20
28837;DHT22;50669;50.982;11.022;2024-03-07T07:50:07;18.80;77.10
28837;DHT22;50669;50.982;11.022;2024-03-07T07:52:42;18.80;77.10
28837;DHT22;50669;50.982;11.022;2024-03-07T07:55:08;18.80;77.00
28837;DHT22;50669;50.982;11.022;2024-03-07T07:57:51;18.80;76.90
28837;DHT22;50669;50.982;11.022;2024-03-07T08:00:23;18.80;76.90
28837;DHT22;50669;50.982;11.022;2024-03-07T08:05:29;18.80;76.80
28837;DHT22;50669;50.982;11.022;2024-03-07T08:07:57;18.90;76.80
28837;DHT22;50669;50.982;11.022;2024-03-07T08:10:33;18.90;76.80
28837;DHT22;50669;50.982;11.022;2024-03-07T08:13:02;18.90;76.70
28837;DHT22;50669;50.982;11.022;2024-03-07T08:15:30;18.80;76.60
28837;DHT22;50669;50.982;11.022;2024-03-07T08:17:56;18.90;76.60
28837;DHT22;50669;50.982;11.022;2024-03-07T08:20:25;18.90;76.60
28837;DHT22;50669;50.982;11.022;2024-03-07T08:22:52;18.90;76.50
28837;DHT22;50669;50.982;11.022;2024-03-07T08:25:20;18.90;76.50
28837;DHT22;50669;50.982;11.022;2024-03-07T08:27:48;18.90;76.40
28837;DHT22;50669;50.982;11.022;2024-03-07T08:30:14;18.90;76.40
28837;DHT22;50669;50.982;11.022;2024-03-07T08:32:50;18.90;76.40
28837;DHT22;50669;50.982;11.022;2024-03-07T08:35:21;18.90;76.40
28837;DHT22;50669;50.982;11.022;2024-03-07T08:37:49;18.90;76.30
28837;DHT22;50669;50.982;11.022;2024-03-07T08:40:19;18.90;76.30
28837;DHT22;50669;50.982;11.022;2024-03-07T08:42:46;18.90;76.20
28837;DHT22;50669;50.982;11.022;2024-03-07T08:45:12;18.90;76.20
28837;DHT22;50669;50.982;11.022;2024-03-07T08:47:54;18.90;76.20
28837;DHT22;50669;50.982;11.022;2024-03-07T08:50:20;18.90;76.10
28837;DHT22;50669;50.982;11.022;2024-03-07T08:52:52;18.90;76.10
28837;DHT22;50669;50.982;11.022;2024-03-07T08:55:23;18.90;76.10
28837;DHT22;50669;50.982;11.022;2024-03-07T08:57:50;18.90;76.00
28837;DHT22;50669;50.982;11.022;2024-03-07T09:00:19;19.00;76.00
28837;DHT22;50669;50.982;11.022;2024-03-07T09:02:58;18.90;75.90
28837;DHT22;50669;50.982;11.022;2024-03-07T09:05:27;19.00;75.90
28837;DHT22;50669;50.982;11.022;2024-03-07T09:07:55;19.00;75.90
28837;DHT22;50669;50.982;11.022;2024-03-07T09:10:21;19.00;75.90
28837;DHT22;50669;50.982;11.022;2024-03-07T09:12:49;18.90;75.80
28837;DHT22;50669;50.982;11.022;2024-03-07T09:15:15;19.00;75.80
28837;DHT22;50669;50.982;11.022;2024-03-07T09:17:42;19.00;75.70
28837;DHT22;50669;50.982;11.022;2024-03-07T09:20:11;19.00;75.80
28837;DHT22;50669;50.982;11.022;2024-03-07T09:22:45;19.00;75.70
28837;DHT22;50669;50.982;11.022;2024-03-07T09:25:12;19.00;75.70
28837;DHT22;50669;50.982;11.022;2024-03-07T09:27:39;19.00;75.70
28837;DHT22;50669;50.982;11.022;2024-03-07T09:30:08;19.00;75.60
28837;DHT22;50669;50.982;11.022;2024-03-07T09:32:41;19.00;75.50
28837;DHT22;50669;50.982;11.022;2024-03-07T09:35:10;19.00;75.60
28837;DHT22;50669;50.982;11.022;2024-03-07T09:37:40;19.00;75.50
28837;DHT22;50669;50.982;11.022;2024-03-07T09:40:07;19.00;75.50
28837;DHT22;50669;50.982;11.022;2024-03-07T09:42:34;19.00;75.40
28837;DHT22;50669;50.982;11.022;2024-03-07T09:45:06;19.00;75.40
28837;DHT22;50669;50.982;11.022;2024-03-07T09:47:33;19.00;75.30
28837;DHT22;50669;50.982;11.022;2024-03-07T09:49:59;19.00;75.30
28837;DHT22;50669;50.982;11.022;2024-03-07T09:52:26;19.00;75.30
28837;DHT22;50669;50.982;11.022;2024-03-07T09:54:52;19.00;75.30
28837;DHT22;50669;50.982;11.022;2024-03-07T09:57:21;19.00;75.20
28837;DHT22;50669;50.982;11.022;2024-03-07T09:59:48;19.00;75.20
28837;DHT22;50669;50.982;11.022;2024-03-07T10:02:15;19.00;75.20
28837;DHT22;50669;50.982;11.022;2024-03-07T10:04:44;19.00;75.20
28837;DHT22;50669;50.982;11.022;2024-03-07T10:07:18;19.00;75.20
28837;DHT22;50669;50.982;11.022;2024-03-07T10:09:44;19.00;75.10
28837;DHT22;50669;50.982;11.022;2024-03-07T10:12:10;19.00;75.10
28837;DHT22;50669;50.982;11.022;2024-03-07T10:14:50;19.00;75.00
28837;DHT22;50669;50.982;11.022;2024-03-07T10:17:19;19.00;75.10
28837;DHT22;50669;50.982;11.022;2024-03-07T10:19:48;19.00;75.00
28837;DHT22;50669;50.982;11.022;2024-03-07T10:22:18;19.00;75.00
28837;DHT22;50669;50.982;11.022;2024-03-07T10:24:57;19.00;75.00
28837;DHT22;50669;50.982;11.022;2024-03-07T10:27:23;19.00;75.00
28837;DHT22;50669;50.982;11.022;2024-03-07T10:29:51;19.00;75.00
28837;DHT22;50669;50.982;11.022;2024-03-07T10:32:21;19.00;75.00
28837;DHT22;50669;50.982;11.022;2024-03-07T10:34:47;19.00;74.90
28837;DHT22;50669;50.982;11.022;2024-03-07T10:37:19;19.00;74.90
28837;DHT22;50669;50.982;11.022;2024-03-07T10:39:49;19.00;74.90
28837;DHT22;50669;50.982;11.022;2024-03-07T10:42:16;19.00;74.90
28837;DHT22;50669;50.982;11.022;2024-03-07T10:44:46;19.00;74.90
28837;DHT22;50669;50.982;11.022;2024-03-07T10:47:20;19.00;74.80
28837;DHT22;50669;50.982;11.022;2024-03-07T10:55:39;19.00;74.70
28837;DHT22;50669;50.982;11.022;2024-03-07T11:00:44;19.00;74.70
28837;DHT22;50669;50.982;11.022;2024-03-07T11:03:11;19.00;74.70
28837;DHT22;50669;50.982;11.022;2024-03-07T11:05:37;19.10;74.70
28837;DHT22;50669;50.982;11.022;2024-03-07T11:08:03;19.00;74.50
28837;DHT22;50669;50.982;11.022;2024-03-07T11:10:37;19.00;74.50
28837;DHT22;50669;50.982;11.022;2024-03-07T11:13:10;19.00;74.50
28837;DHT22;50669;50.982;11.022;2024-03-07T11:15:42;19.10;74.50
28837;DHT22;50669;50.982;11.022;2024-03-07T11:18:09;19.10;74.50
28837;DHT22;50669;50.982;11.022;2024-03-07T11:20:38;19.00;74.40
28837;DHT22;50669;50.982;11.022;2024-03-07T11:23:26;19.10;74.50
28837;DHT22;50669;50.982;11.022;2024-03-07T11:25:55;19.00;74.40
28837;DHT22;50669;50.982;11.022;2024-03-07T11:28:28;19.10;74.40
28837;DHT22;50669;50.982;11.022;2024-03-07T11:30:56;19.10;74.40
28837;DHT22;50669;50.982;11.022;2024-03-07T11:33:36;19.10;74.30
28837;DHT22;50669;50.982;11.022;2024-03-07T11:36:03;19.10;74.30
28837;DHT22;50669;50.982;11.022;2024-03-07T11:38:32;19.10;74.30
28837;DHT22;50669;50.982;11.022;2024-03-07T11:41:01;19.10;74.30
28837;DHT22;50669;50.982;11.022;2024-03-07T11:43:32;19.10;74.30
28837;DHT22;50669;50.982;11.022;2024-03-07T11:45:59;19.10;74.20
28837;DHT22;50669;50.982;11.022;2024-03-07T11:48:25;19.10;74.20
28837;DHT22;50669;50.982;11.022;2024-03-07T11:50:50;19.10;74.10
28837;DHT22;50669;50.982;11.022;2024-03-07T11:53:16;19.10;74.00
28837;DHT22;50669;50.982;11.022;2024-03-07T11:55:43;19.20;74.00
28837;DHT22;50669;50.982;11.022;2024-03-07T11:58:20;19.20;74.00
28837;DHT22;50669;50.982;11.022;2024-03-07T12:00:50;19.10;74.00
28837;DHT22;50669;50.982;11.022;2024-03-07T12:03:18;19.10;74.00
28837;DHT22;50669;50.982;11.022;2024-03-07T12:05:49;19.10;74.00
28837;DHT22;50669;50.982;11.022;2024-03-07T12:08:16;19.10;74.00
28837;DHT22;50669;50.982;11.022;2024-03-07T12:10:44;19.10;74.00
28837;DHT22;50669;50.982;11.022;2024-03-07T12:13:12;19.10;74.00
28837;DHT22;50669;50.982;11.022;2024-03-07T12:15:39;19.10;73.90
28837;DHT22;50669;50.982;11.022;2024-03-07T12:18:05;19.10;73.90
28837;DHT22;50669;50.982;11.022;2024-03-07T12:20:38;19.10;73.80
28837;DHT22;50669;50.982;11.022;2024-03-07T12:23:05;19.10;73.90
28837;DHT22;50669;50.982;11.022;2024-03-07T12:25:36;19.10;73.80
28837;DHT22;50669;50.982;11.022;2024-03-07T12:28:08;19.10;73.80
28837;DHT22;50669;50.982;11.022;2024-03-07T12:33:12;19.10;73.80
28837;DHT22;50669;50.982;11.022;2024-03-07T12:35:46;19.10;73.80
28837;DHT22;50669;50.982;11.022;2024-03-07T12:38:12;19.10;73.80
28837;DHT22;50669;50.982;11.022;2024-03-07T12:40:42;19.10;73.80
28837;DHT22;50669;50.982;11.022;2024-03-07T12:43:20;19.10;73.80
28837;DHT22;50669;50.982;11.022;2024-03-07T12:45:53;19.10;73.80
28837;DHT22;50669;50.982;11.022;2024-03-07T12:48:26;19.10;73.70
28837;DHT22;50669;50.982;11.022;2024-03-07T12:50:52;19.10;73.70
28837;DHT22;50669;50.982;11.022;2024-03-07T12:53:22;19.10;73.70
28837;DHT22;50669;50.982;11.022;2024-03-07T12:55:51;19.10;73.70
28837;DHT22;50669;50.982;11.022;2024-03-07T12:58:22;19.10;73.70
28837;DHT22;50669;50.982;11.022;2024-03-07T13:00:54;19.10;73.70
28837;DHT22;50669;50.982;11.022;2024-03-07T13:03:28;19.10;73.70
28837;DHT22;50669;50.982;11.022;2024-03-07T13:05:57;19.20;73.60
28837;DHT22;50669;50.982;11.022;2024-03-07T13:08:28;19.20;73.50
28837;DHT22;50669;50.982;11.022;2024-03-07T13:10:57;19.30;73.50
28837;DHT22;50669;50.982;11.022;2024-03-07T13:13:24;19.40;73.10
28837;DHT22;50669;50.982;11.022;2024-03-07T13:15:50;19.50;72.80
28837;DHT22;50669;50.982;11.022;2024-03-07T13:18:20;19.60;72.50
28837;DHT22;50669;50.982;11.022;2024-03-07T13:20:48;19.70;72.30
28837;DHT22;50669;50.982;11.022;2024-03-07T13:23:13;19.70;72.20
28837;DHT22;50669;50.982;11.022;2024-03-07T13:25:42;19.70;72.10
28837;DHT22;50669;50.982;11.022;2024-03-07T13:28:13;19.70;72.10
28837;DHT22;50669;50.982;11.022;2024-03-07T13:30:44;19.60;72.20
28837;DHT22;50669;50.982;11.022;2024-03-07T13:33:13;19.60;72.20
28837;DHT22;50669;50.982;11.022;2024-03-07T13:35:41;19.60;72.20
28837;DHT22;50669;50.982;11.022;2024-03-07T13:38:08;19.60;72.10
28837;DHT22;50669;50.982;11.022;2024-03-07T13:40:36;19.70;72.20
28837;DHT22;50669;50.982;11.022;2024-03-07T13:43:05;19.60;72.10
28837;DHT22;50669;50.982;11.022;2024-03-07T13:45:32;19.60;72.20
28837;DHT22;50669;50.982;11.022;2024-03-07T13:48:04;19.60;72.30
28837;DHT22;50669;50.982;11.022;2024-03-07T13:50:34;19.70;72.30
28837;DHT22;50669;50.982;11.022;2024-03-07T13:53:03;19.70;72.20
28837;DHT22;50669;50.982;11.022;2024-03-07T14:32:13;19.40;72.30
28837;DHT22;50669;50.982;11.022;2024-03-07T14:37:36;19.40;72.30
28837;DHT22;50669;50.982;11.022;2024-03-07T14:40:10;19.40;72.30
28837;DHT22;50669;50.982;11.022;2024-03-07T14:42:44;19.40;72.40
28837;DHT22;50669;50.982;11.022;2024-03-07T14:45:17;19.40;72.40
28837;DHT22;50669;50.982;11.022;2024-03-07T14:47:45;19.40;72.40
28837;DHT22;50669;50.982;11.022;2024-03-07T14:50:12;19.40;72.50
28837;DHT22;50669;50.982;11.022;2024-03-07T14:52:44;19.30;72.50
28837;DHT22;50669;50.982;11.022;2024-03-07T14:55:11;19.30;72.50
28837;DHT22;50669;50.982;11.022;2024-03-07T14:57:40;19.30;72.50
28837;DHT22;50669;50.982;11.022;2024-03-07T15:00:08;19.30;72.50
28837;DHT22;50669;50.982;11.022;2024-03-07T15:02:49;19.30;72.50
28837;DHT22;50669;50.982;11.022;2024-03-07T15:05:15;19.30;72.50
28837;DHT22;50669;50.982;11.022;2024-03-07T15:07:43;19.30;72.50
28837;DHT22;50669;50.982;11.022;2024-03-07T15:10:27;19.30;72.60
28837;DHT22;50669;50.982;11.022;2024-03-07T15:12:53;19.30;72.50
28837;DHT22;50669;50.982;11.022;2024-03-07T15:15:21;19.20;72.50
28837;DHT22;50669;50.982;11.022;2024-03-07T15:17:50;19.20;72.50
28837;DHT22;50669;50.982;11.022;2024-03-07T15:20:15;19.20;72.50
28837;DHT22;50669;50.982;11.022;2024-03-07T15:22:57;19.20;72.50
28837;DHT22;50669;50.982;11.022;2024-03-07T15:25:24;19.20;72.50
28837;DHT22;50669;50.982;11.022;2024-03-07T15:27:50;19.20;72.50
28837;DHT22;50669;50.982;11.022;2024-03-07T15:30:17;19.20;72.50
28837;DHT22;50669;50.982;11.022;2024-03-07T15:32:46;19.20;72.50
28837;DHT22;50669;50.982;11.022;2024-03-07T15:35:13;19.20;72.60
28837;DHT22;50669;50.982;11.022;2024-03-07T15:37:45;19.20;72.60
28837;DHT22;50669;50.982;11.022;2024-03-07T15:40:13;19.10;72.50
28837;DHT22;50669;50.982;11.022;2024-03-07T15:42:43;19.10;72.50
28837;DHT22;50669;50.982;11.022;2024-03-07T15:45:16;19.10;72.50
28837;DHT22;50669;50.982;11.022;2024-03-07T15:47:46;19.10;72.60
28837;DHT22;50669;50.982;11.022;2024-03-07T15:50:16;19.10;72.50
28837;DHT22;50669;50.982;11.022;2024-03-07T15:52:45;19.10;72.50
28837;DHT22;50669;50.982;11.022;2024-03-07T15:55:12;19.10;72.50
28837;DHT22;50669;50.982;11.022;2024-03-07T15:57:49;19.10;72.50
28837;DHT22;50669;50.982;11.022;2024-03-07T16:00:20;19.10;72.50
28837;DHT22;50669;50.982;11.022;2024-03-07T16:03:00;19.10;72.60
28837;DHT22;50669;50.982;11.022;2024-03-07T16:05:30;19.00;72.50
28837;DHT22;50669;50.982;11.022;2024-03-07T16:07:57;19.00;72.50
28837;DHT22;50669;50.982;11.022;2024-03-07T16:10:25;19.00;72.50
28837;DHT22;50669;50.982;11.022;2024-03-07T16:12:54;19.00;72.50
28837;DHT22;50669;50.982;11.022;2024-03-07T16:15:20;19.00;72.50
28837;DHT22;50669;50.982;11.022;2024-03-07T16:17:50;19.00;72.50